createdAt,value
2022-10-07T00:00:24.321Z,99076.00
2022-10-07T00:04:25.213Z,99072.00
2022-10-07T00:08:26.300Z,99068.00
2022-10-07T00:12:28.224Z,99076.00
2022-10-07T00:16:31.917Z,99062.00
2022-10-07T00:20:40.089Z,99055.00
2022-10-07T00:24:41.478Z,99059.00
2022-10-07T00:28:43.068Z,99050.00
2022-10-07T00:32:44.146Z,99047.00
2022-10-07T00:36:45.320Z,99033.00
2022-10-07T00:40:46.640Z,99040.00
2022-10-07T00:44:48.136Z,99027.00
2022-10-07T00:48:49.473Z,99026.00
2022-10-07T00:52:54.256Z,99022.00
2022-10-07T00:56:55.772Z,99020.00
2022-10-07T01:00:57.582Z,99026.00
2022-10-07T01:05:01.024Z,99020.00
2022-10-07T01:09:01.894Z,99012.00
2022-10-07T01:13:06.755Z,99011.00
2022-10-07T01:17:11.522Z,99006.00
2022-10-07T01:21:19.599Z,99001.00
2022-10-07T01:25:44.877Z,98987.00
2022-10-07T01:29:55.566Z,98986.00
2022-10-07T01:33:56.541Z,98983.00
2022-10-07T01:38:00.855Z,98972.00
2022-10-07T01:42:02.751Z,98968.00
2022-10-07T01:46:07.162Z,98968.00
2022-10-07T01:50:16.200Z,98967.00
2022-10-07T01:54:39.580Z,98959.00
2022-10-07T01:59:00.876Z,98961.00
2022-10-07T02:03:16.831Z,98947.00
2022-10-07T02:07:21.705Z,98952.00
2022-10-07T02:11:26.734Z,98950.00
2022-10-07T02:15:31.458Z,98931.00
2022-10-07T02:19:35.251Z,98931.00
2022-10-07T02:23:39.461Z,98931.00
2022-10-07T02:27:42.809Z,98921.00
2022-10-07T02:31:45.471Z,98916.00
2022-10-07T02:35:54.120Z,98917.00
2022-10-07T02:39:56.770Z,98911.00
2022-10-07T02:44:16.757Z,98907.00
2022-10-07T02:48:21.592Z,98900.00
2022-10-07T02:52:23.643Z,98903.00
2022-10-07T02:56:25.865Z,98894.00
2022-10-07T03:00:30.039Z,98896.00
2022-10-07T03:04:31.446Z,98888.00
2022-10-07T03:08:32.728Z,98898.00
2022-10-07T03:12:33.756Z,98882.00
2022-10-07T03:16:34.773Z,98886.00
2022-10-07T03:20:35.848Z,98894.00
2022-10-07T03:24:37.086Z,98885.00
2022-10-07T03:28:38.113Z,98873.00
2022-10-07T03:32:40.804Z,98868.00
2022-10-07T03:36:42.026Z,98871.00
2022-10-07T03:40:44.109Z,98864.00
2022-10-07T03:44:45.561Z,98861.00
2022-10-07T03:48:46.632Z,98748.00
2022-10-07T03:52:47.463Z,98864.00
2022-10-07T03:56:48.611Z,98864.00
2022-10-07T04:00:49.633Z,98853.00
2022-10-07T04:04:53.181Z,98851.00
2022-10-07T04:08:54.945Z,98859.00
2022-10-07T04:12:56.171Z,98845.00
2022-10-07T04:16:57.193Z,98851.00
2022-10-07T04:21:01.188Z,98849.00
2022-10-07T04:25:22.062Z,98836.00
2022-10-07T04:29:23.187Z,98840.00
2022-10-07T04:33:24.299Z,98831.00
2022-10-07T04:37:25.578Z,98831.00
2022-10-07T04:41:26.662Z,98832.00
2022-10-07T04:45:27.688Z,98828.00
2022-10-07T04:49:28.693Z,98822.00
2022-10-07T04:53:31.244Z,98825.00
2022-10-07T04:57:32.488Z,98825.00
2022-10-07T05:01:33.520Z,98824.00
2022-10-07T05:05:34.872Z,98812.00
2022-10-07T05:09:35.877Z,98814.00
2022-10-07T05:13:37.827Z,98816.00
2022-10-07T05:17:41.866Z,98810.00
2022-10-07T05:21:43.304Z,98809.00
2022-10-07T05:25:45.054Z,98804.00
2022-10-07T05:29:46.209Z,98806.00
2022-10-07T05:33:48.753Z,98807.00
2022-10-07T05:37:53.267Z,98806.00
2022-10-07T05:41:54.945Z,98799.00
2022-10-07T05:46:05.211Z,98796.00
2022-10-07T05:50:07.422Z,98780.00
2022-10-07T05:54:08.336Z,98785.00
2022-10-07T05:58:09.236Z,98783.00
2022-10-07T06:02:13.320Z,98787.00
2022-10-07T06:06:14.501Z,98784.00
2022-10-07T06:10:33.860Z,98774.00
2022-10-07T06:14:35.132Z,98771.00
2022-10-07T06:18:36.521Z,98769.00
2022-10-07T06:22:37.668Z,98778.00
2022-10-07T06:26:38.669Z,98779.00
2022-10-07T06:30:39.657Z,98786.00
2022-10-07T06:34:40.566Z,98787.00
2022-10-07T06:38:45.261Z,98776.00
2022-10-07T06:42:46.460Z,98794.00
2022-10-07T06:46:47.475Z,98793.00
2022-10-07T06:50:53.226Z,98771.00
2022-10-07T06:54:54.259Z,98777.00
2022-10-07T06:58:55.345Z,98779.00
2022-10-07T07:02:59.699Z,98785.00
2022-10-07T07:07:01.522Z,98778.00
2022-10-07T07:11:08.232Z,98780.00
2022-10-07T07:15:09.657Z,98785.00
2022-10-07T07:19:11.722Z,98776.00
2022-10-07T07:23:12.764Z,98773.00
2022-10-07T07:27:14.497Z,98777.00
2022-10-07T07:31:15.621Z,98775.00
2022-10-07T07:35:16.747Z,98770.00
2022-10-07T07:39:18.402Z,98774.00
2022-10-07T07:43:19.461Z,98781.00
2022-10-07T07:47:21.340Z,98769.00
2022-10-07T07:51:22.385Z,98766.00
2022-10-07T07:55:23.417Z,98765.00
2022-10-07T07:59:24.687Z,98760.00
2022-10-07T08:03:25.968Z,98756.00
2022-10-07T08:07:26.959Z,98759.00
2022-10-07T08:11:28.338Z,98757.00
2022-10-07T08:15:29.543Z,98747.00
2022-10-07T08:19:30.441Z,98745.00
2022-10-07T08:23:31.299Z,98747.00
2022-10-07T08:27:32.958Z,98741.00
2022-10-07T08:31:35.197Z,98735.00
2022-10-07T08:35:36.267Z,98735.00
2022-10-07T08:39:37.301Z,98727.00
2022-10-07T08:43:42.040Z,98726.00
2022-10-07T08:47:45.760Z,98729.00
2022-10-07T08:51:50.651Z,98725.00
2022-10-07T08:55:54.903Z,98719.00
2022-10-07T08:59:59.668Z,98715.00
2022-10-07T09:04:04.607Z,98711.00
2022-10-07T09:08:16.790Z,98712.00
2022-10-07T09:12:24.393Z,98720.00
2022-10-07T09:16:32.512Z,98707.00
2022-10-07T09:20:37.377Z,98705.00
2022-10-07T09:24:38.761Z,98708.00
2022-10-07T09:28:40.364Z,98702.00
2022-10-07T09:32:44.971Z,98700.00
2022-10-07T09:37:19.928Z,98693.00
2022-10-07T09:41:31.316Z,98690.00
2022-10-07T09:45:32.804Z,98689.00
2022-10-07T09:49:40.866Z,98684.00
2022-10-07T09:54:03.488Z,98678.00
2022-10-07T09:58:07.735Z,98678.00
2022-10-07T10:02:18.758Z,98674.00
2022-10-07T10:06:21.297Z,98676.00
2022-10-07T10:10:26.402Z,98676.00
2022-10-07T10:14:45.939Z,98662.00
2022-10-07T10:18:56.025Z,98665.00
2022-10-07T10:22:59.067Z,98667.00
2022-10-07T10:27:03.831Z,98659.00
2022-10-07T10:31:29.179Z,98652.00
2022-10-07T10:35:52.521Z,98643.00
2022-10-07T10:40:09.360Z,98644.00
2022-10-07T10:44:14.021Z,98639.00
2022-10-07T10:48:43.650Z,98634.00
2022-10-07T10:52:57.335Z,98621.00
2022-10-07T10:57:12.319Z,98621.00
2022-10-07T11:01:20.479Z,98616.00
2022-10-07T11:05:27.425Z,98605.00
2022-10-07T11:09:50.205Z,98600.00
2022-10-07T11:13:58.132Z,98596.00
2022-10-07T11:18:03.015Z,98594.00
2022-10-07T11:22:08.246Z,98586.00
2022-10-07T11:26:34.467Z,98584.00
2022-10-07T11:30:37.089Z,98573.00
2022-10-07T11:34:51.010Z,98568.00
2022-10-07T11:38:52.339Z,98569.00
2022-10-07T11:42:55.104Z,98558.00
2022-10-07T11:46:59.674Z,98551.00
2022-10-07T11:51:06.322Z,98545.00
2022-10-07T11:55:11.302Z,98541.00
2022-10-07T11:59:33.911Z,98523.00
2022-10-07T12:03:41.756Z,98518.00
2022-10-07T12:07:58.116Z,98507.00
2022-10-07T12:11:59.093Z,98505.00
2022-10-07T12:16:04.049Z,98504.00
2022-10-07T12:20:40.512Z,98486.00
2022-10-07T12:24:45.287Z,98475.00
2022-10-07T12:28:48.698Z,98472.00
2022-10-07T12:32:55.422Z,98469.00
2022-10-07T12:37:03.684Z,98463.00
2022-10-07T12:41:08.554Z,98458.00
2022-10-07T12:45:10.831Z,98370.00
2022-10-07T12:49:27.153Z,98443.00
2022-10-07T12:53:32.134Z,98441.00
2022-10-07T12:57:36.260Z,98439.00
2022-10-07T13:01:59.359Z,98439.00
2022-10-07T13:06:09.887Z,98437.00
2022-10-07T13:10:32.549Z,98422.00
2022-10-07T13:14:52.139Z,98424.00
2022-10-07T13:19:16.702Z,98416.00
2022-10-07T13:23:23.347Z,98410.00
2022-10-07T13:27:27.178Z,98396.00
2022-10-07T13:31:31.023Z,98403.00
2022-10-07T13:35:37.524Z,98396.00
2022-10-07T13:39:35.617Z,98390.00
2022-10-07T13:43:38.005Z,98380.00
2022-10-07T13:47:41.048Z,98368.00
2022-10-07T13:51:42.398Z,98377.00
2022-10-07T13:55:45.182Z,98369.00
2022-10-07T13:59:47.745Z,98360.00
2022-10-07T14:04:04.389Z,98358.00
2022-10-07T14:08:14.878Z,98350.00
2022-10-07T14:12:37.630Z,98348.00
2022-10-07T14:16:39.529Z,98340.00
2022-10-07T14:20:45.363Z,98333.00
2022-10-07T14:24:59.771Z,98332.00
2022-10-07T14:29:04.678Z,98318.00
2022-10-07T14:33:33.060Z,98317.00
2022-10-07T14:37:34.810Z,98305.00
2022-10-07T14:41:35.813Z,98297.00
2022-10-07T14:45:36.812Z,98297.00
2022-10-07T14:49:37.933Z,98292.00
2022-10-07T14:53:41.342Z,98293.00
2022-10-07T14:57:42.503Z,98274.00
2022-10-07T15:01:43.362Z,98283.00
2022-10-07T15:05:44.654Z,98275.00
2022-10-07T15:09:46.009Z,98267.00
2022-10-07T15:13:49.315Z,98270.00
2022-10-07T15:17:50.271Z,98266.00
2022-10-07T15:21:52.099Z,98270.00
2022-10-07T15:25:53.180Z,98274.00
2022-10-07T15:29:54.779Z,98259.00
2022-10-07T15:33:56.953Z,98265.00
2022-10-07T15:37:57.928Z,98263.00
2022-10-07T15:41:59.527Z,98256.00
2022-10-07T15:46:01.147Z,98245.00
2022-10-07T15:50:02.494Z,98245.00
2022-10-07T15:54:05.113Z,98246.00
2022-10-07T15:58:06.222Z,98245.00
2022-10-07T16:02:14.544Z,98243.00
2022-10-07T16:06:20.884Z,98253.00
2022-10-07T16:10:21.987Z,98241.00
2022-10-07T16:14:23.005Z,98238.00
2022-10-07T16:18:24.065Z,98240.00
2022-10-07T16:22:25.264Z,98253.00
2022-10-07T16:26:29.562Z,98241.00
2022-10-07T16:30:42.456Z,98246.00
2022-10-07T16:34:44.147Z,98240.00
2022-10-07T16:38:45.889Z,98248.00
2022-10-07T16:42:47.391Z,98158.00
2022-10-07T16:46:48.868Z,98241.00
2022-10-07T16:50:50.140Z,98236.00
2022-10-07T16:54:51.356Z,98243.00
2022-10-07T16:58:57.954Z,98235.00
2022-10-07T17:02:59.189Z,98237.00
2022-10-07T17:07:00.271Z,98140.00
2022-10-07T17:11:02.200Z,98227.00
2022-10-07T17:15:04.023Z,98234.00
2022-10-07T17:19:07.031Z,98236.00
2022-10-07T17:23:08.237Z,98228.00
2022-10-07T17:27:09.252Z,98234.00
2022-10-07T17:31:12.791Z,98230.00
2022-10-07T17:35:14.243Z,98227.00
2022-10-07T17:39:15.630Z,98237.00
2022-10-07T17:43:16.659Z,98232.00
2022-10-07T17:47:18.830Z,98229.00
2022-10-07T17:51:23.419Z,98226.00
2022-10-07T17:55:24.445Z,98227.00
2022-10-07T17:59:26.378Z,98211.00
2022-10-07T18:03:27.496Z,98227.00
2022-10-07T18:07:28.759Z,98228.00
2022-10-07T18:11:48.769Z,98220.00
2022-10-07T18:15:58.477Z,98222.00
2022-10-07T18:20:00.386Z,98211.00
2022-10-07T18:24:01.367Z,98217.00
2022-10-07T18:28:02.959Z,98212.00
2022-10-07T18:32:06.036Z,98210.00
2022-10-07T18:36:10.420Z,98203.00
2022-10-07T18:40:11.557Z,98201.00
2022-10-07T18:44:13.141Z,98196.00
2022-10-07T18:48:14.182Z,98195.00
2022-10-07T18:52:15.299Z,98184.00
2022-10-07T18:56:19.379Z,98185.00
2022-10-07T19:00:20.827Z,98181.00
2022-10-07T19:04:22.122Z,98176.00
2022-10-07T19:08:23.443Z,98171.00
2022-10-07T19:12:29.082Z,98178.00
2022-10-07T19:16:36.659Z,98175.00
2022-10-07T19:20:38.196Z,98173.00
2022-10-07T19:24:57.457Z,98172.00
2022-10-07T19:28:58.482Z,98170.00
2022-10-07T19:32:59.540Z,98167.00
2022-10-07T19:37:00.641Z,98163.00
2022-10-07T19:41:02.403Z,98165.00
2022-10-07T19:45:05.644Z,98164.00
2022-10-07T19:49:08.607Z,98161.00
2022-10-07T19:53:09.637Z,98161.00
2022-10-07T19:57:12.177Z,98159.00
2022-10-07T20:01:14.766Z,98159.00
2022-10-07T20:05:15.956Z,98147.00
2022-10-07T20:09:17.980Z,98166.00
2022-10-07T20:13:19.046Z,98150.00
2022-10-07T20:17:19.960Z,98147.00
2022-10-07T20:21:22.928Z,98139.00
2022-10-07T20:25:24.945Z,98140.00
2022-10-07T20:29:26.054Z,98135.00
2022-10-07T20:33:26.995Z,98135.00
2022-10-07T20:37:28.070Z,98152.00
2022-10-07T20:41:47.916Z,98144.00
2022-10-07T20:45:56.664Z,98138.00
2022-10-07T20:49:59.723Z,98140.00
2022-10-07T20:54:02.464Z,98141.00
2022-10-07T20:58:04.375Z,98149.00
2022-10-07T21:02:09.463Z,98130.00
2022-10-07T21:06:10.037Z,98131.00
2022-10-07T21:10:10.986Z,98129.00
2022-10-07T21:14:12.597Z,98134.00
2022-10-07T21:18:14.060Z,98131.00
2022-10-07T21:22:14.996Z,98130.00
2022-10-07T21:26:16.501Z,98124.00
2022-10-07T21:30:17.456Z,98117.00
2022-10-07T21:34:18.412Z,98140.00
2022-10-07T21:38:19.382Z,98121.00
2022-10-07T21:42:20.541Z,98118.00
2022-10-07T21:46:22.754Z,98119.00
2022-10-07T21:50:24.461Z,98124.00
2022-10-07T21:54:25.529Z,98114.00
2022-10-07T21:58:27.308Z,98120.00
2022-10-07T22:02:28.580Z,98118.00
2022-10-07T22:06:49.428Z,98112.00
2022-10-07T22:10:59.597Z,98113.00
2022-10-07T22:15:00.535Z,98118.00
2022-10-07T22:19:01.875Z,98111.00
2022-10-07T22:23:02.742Z,98121.00
2022-10-07T22:27:03.821Z,98104.00
2022-10-07T22:31:07.022Z,98099.00
2022-10-07T22:35:26.882Z,98091.00
2022-10-07T22:39:28.580Z,98094.00
2022-10-07T22:43:29.674Z,98095.00
2022-10-07T22:47:30.611Z,98087.00
2022-10-07T22:51:31.620Z,98092.00
2022-10-07T22:55:33.070Z,98089.00
2022-10-07T22:59:33.900Z,98075.00
2022-10-07T23:03:39.066Z,98077.00
2022-10-07T23:07:40.055Z,98084.00
2022-10-07T23:11:40.922Z,98078.00
2022-10-07T23:15:41.810Z,98084.00
2022-10-07T23:19:42.807Z,98082.00
2022-10-07T23:23:45.756Z,98084.00
2022-10-07T23:27:47.304Z,98074.00
2022-10-07T23:31:48.280Z,98072.00
2022-10-07T23:35:49.335Z,98077.00
2022-10-07T23:39:50.668Z,98067.00
2022-10-07T23:43:53.438Z,98071.00
2022-10-07T23:47:54.575Z,98058.00
2022-10-07T23:51:55.473Z,98056.00
2022-10-07T23:55:56.550Z,98057.00
2022-10-07T23:59:57.608Z,98050.00
